Time;durP1;ratioP1;P1;durP2;ratioP2;P2;SDS_P1;SDS_P2;PMS_P1;PMS_P2;Temp;Humidity;BMP_temperature;BMP_pressure;BME280_temperature;BME280_humidity;BME280_pressure;Samples;Min_cycle;Max_cycle;Signal;HPM_P1;HPM_P2
2022/01/22 00:00:08;;;;;;;44.28;16.33;;;;;;;;;;6160545;23;19997;-73
2022/01/22 00:02:37;;;;;;;24.15;10.57;;;;;;;;;;6161108;23;20096;-73
2022/01/22 00:05:04;;;;;;;17.95;8.57;;;;;;;;;;6186373;23;20150;-73
2022/01/22 00:07:30;;;;;;;18.92;9.68;;;;;;;;;;6186556;23;20005;-73
2022/01/22 00:10:00;;;;;;;21.30;10.27;;;;;;;;;;6186450;23;20332;-73
2022/01/22 00:15:05;;;;;;;19.85;9.55;;;;;;;;;;6186271;23;20007;-74
2022/01/22 00:17:30;;;;;;;22.83;9.55;;;;;;;;;;6160289;23;20088;-73
2022/01/22 00:19:56;;;;;;;24.10;11.77;;;;;;;;;;6186155;23;20035;-73
2022/01/22 00:22:26;;;;;;;26.00;12.73;;;;;;;;;;6186508;23;20013;-74
2022/01/22 00:24:56;;;;;;;27.23;11.70;;;;;;;;;;6186169;23;20009;-73
2022/01/22 00:27:22;;;;;;;27.48;12.20;;;;;;;;;;6160464;23;20005;-73
2022/01/22 00:29:47;;;;;;;21.35;11.30;;;;;;;;;;6160342;23;20015;-73
2022/01/22 00:32:13;;;;;;;21.63;11.18;;;;;;;;;;6186393;23;20096;-73
2022/01/22 00:34:38;;;;;;;20.38;10.60;;;;;;;;;;6159533;23;19997;-73
2022/01/22 00:37:04;;;;;;;14.00;8.52;;;;;;;;;;6159930;23;20464;-73
2022/01/22 00:39:30;;;;;;;11.65;7.13;;;;;;;;;;6159637;23;20029;-74
2022/01/22 00:41:56;;;;;;;9.48;5.68;;;;;;;;;;6159586;23;20014;-74
2022/01/22 00:44:22;;;;;;;9.07;6.07;;;;;;;;;;6185655;23;20053;-74
2022/01/22 00:46:48;;;;;;;11.45;6.55;;;;;;;;;;6159786;23;20389;-74
2022/01/22 00:49:13;;;;;;;11.35;6.68;;;;;;;;;;6186027;23;19997;-74
2022/01/22 00:51:39;;;;;;;15.15;8.48;;;;;;;;;;6185301;23;20013;-74
2022/01/22 00:54:05;;;;;;;19.65;10.20;;;;;;;;;;6135242;23;20096;-74
2022/01/22 00:56:30;;;;;;;75.40;48.65;;;;;;;;;;6160096;23;20005;-74
2022/01/22 00:58:57;;;;;;;62.78;37.30;;;;;;;;;;6186445;23;20083;-74
2022/01/22 01:01:22;;;;;;;43.25;24.10;;;;;;;;;;6159612;23;20373;-74
2022/01/22 01:03:48;;;;;;;32.28;17.27;;;;;;;;;;6159703;23;20001;-73
2022/01/22 01:06:14;;;;;;;19.23;11.10;;;;;;;;;;6159613;23;20005;-73
2022/01/22 01:08:42;;;;;;;18.45;9.77;;;;;;;;;;6159319;23;20035;-75
2022/01/22 01:11:11;;;;;;;13.23;8.27;;;;;;;;;;6158907;23;20377;-74
2022/01/22 01:13:42;;;;;;;21.08;9.82;;;;;;;;;;6159986;23;20121;-75
2022/01/22 01:16:18;;;;;;;22.80;12.25;;;;;;;;;;6159656;23;20005;-75
2022/01/22 01:32:57;;;;;;;10.90;7.25;;;;;;;;;;6159537;23;20012;-74
2022/01/22 01:35:14;;;;;;;7.53;4.85;;;;;;;;;;6158900;23;20009;-75
2022/01/22 01:37:40;;;;;;;7.05;4.57;;;;;;;;;;6159400;23;20005;-74
2022/01/22 01:40:08;;;;;;;5.45;3.50;;;;;;;;;;6159243;23;20374;-75
2022/01/22 01:45:04;;;;;;;10.07;5.53;;;;;;;;;;6159146;23;20405;-75
2022/01/22 01:47:40;;;;;;;6.80;4.25;;;;;;;;;;6159733;23;20009;-75
2022/01/22 01:50:06;;;;;;;5.70;3.53;;;;;;;;;;6134928;23;20052;-73
2022/01/22 01:52:46;;;;;;;4.82;3.50;;;;;;;;;;6159052;23;20358;-73
2022/01/22 01:55:17;;;;;;;4.50;3.55;;;;;;;;;;6135196;23;20032;-73
2022/01/22 01:57:43;;;;;;;5.80;3.33;;;;;;;;;;6159650;23;20326;-73
2022/01/22 02:00:18;;;;;;;5.10;3.42;;;;;;;;;;6159386;23;20075;-73
2022/01/22 02:02:47;;;;;;;4.93;2.92;;;;;;;;;;6159524;23;20437;-73
2022/01/22 02:05:18;;;;;;;5.53;3.15;;;;;;;;;;6159494;23;20451;-73
2022/01/22 02:07:45;;;;;;;5.90;3.35;;;;;;;;;;6134961;23;20048;-73
2022/01/22 02:10:20;;;;;;;4.45;2.88;;;;;;;;;;6159371;23;20021;-73
2022/01/22 02:23:51;;;;;;;6.25;3.80;;;;;;;;;;6159546;23;20009;-74
2022/01/22 02:26:18;;;;;;;7.28;3.80;;;;;;;;;;6159388;23;20001;-75
2022/01/22 02:28:49;;;;;;;5.38;4.10;;;;;;;;;;6159628;23;20009;-74
2022/01/22 02:34:18;;;;;;;6.63;4.03;;;;;;;;;;6159343;23;20467;-74
2022/01/22 02:39:42;;;;;;;12.90;6.35;;;;;;;;;;6161833;23;20136;-74
2022/01/22 02:42:08;;;;;;;12.00;6.57;;;;;;;;;;6136727;23;20008;-74
2022/01/22 02:44:36;;;;;;;18.95;9.90;;;;;;;;;;6160710;23;20013;-73
2022/01/22 02:47:10;;;;;;;12.45;7.43;;;;;;;;;;6160965;23;20011;-72
2022/01/22 02:49:36;;;;;;;12.90;6.80;;;;;;;;;;6160682;23;20017;-72
2022/01/22 02:52:07;;;;;;;16.00;6.85;;;;;;;;;;6142192;23;20025;-73
2022/01/22 02:54:34;;;;;;;10.80;6.20;;;;;;;;;;6131169;23;20326;-72
2022/01/22 02:56:59;;;;;;;11.73;6.47;;;;;;;;;;6131358;23;19993;-72
2022/01/22 02:59:25;;;;;;;10.65;5.80;;;;;;;;;;6130820;23;20006;-72
2022/01/22 03:01:51;;;;;;;10.55;5.85;;;;;;;;;;6107210;23;20010;-72
2022/01/22 03:04:17;;;;;;;9.50;5.68;;;;;;;;;;6131550;23;20015;-72
2022/01/22 03:06:44;;;;;;;9.35;5.75;;;;;;;;;;6157408;23;20009;-72
2022/01/22 03:09:12;;;;;;;6.65;4.45;;;;;;;;;;6131060;23;20501;-72
2022/01/22 03:11:47;;;;;;;7.43;4.65;;;;;;;;;;6130988;23;20005;-72
2022/01/22 03:16:55;;;;;;;11.48;6.50;;;;;;;;;;6130791;23;20008;-72
2022/01/22 03:27:29;;;;;;;7.07;4.65;;;;;;;;;;6131236;23;20037;-74
2022/01/22 03:29:56;;;;;;;5.45;4.35;;;;;;;;;;6106554;23;20009;-74
2022/01/22 03:32:23;;;;;;;5.32;3.97;;;;;;;;;;6131130;23;20415;-74
2022/01/22 03:37:41;;;;;;;8.02;4.82;;;;;;;;;;6086624;23;20026;-75
2022/01/22 03:40:08;;;;;;;10.45;5.57;;;;;;;;;;6130865;23;20007;-75
2022/01/22 03:42:35;;;;;;;7.60;5.25;;;;;;;;;;6106194;23;20020;-75
2022/01/22 03:45:03;;;;;;;10.85;5.53;;;;;;;;;;6106435;23;20013;-73
2022/01/22 03:47:31;;;;;;;8.25;5.50;;;;;;;;;;6130755;23;20013;-75
2022/01/22 03:49:57;;;;;;;8.40;5.53;;;;;;;;;;6130686;23;20010;-75
2022/01/22 03:52:23;;;;;;;8.55;5.10;;;;;;;;;;6122737;23;20021;-75
2022/01/22 03:54:50;;;;;;;6.20;4.65;;;;;;;;;;6130419;23;20052;-74
2022/01/22 03:57:36;;;;;;;8.32;4.65;;;;;;;;;;6156703;23;20037;-74
2022/01/22 04:00:03;;;;;;;8.52;4.35;;;;;;;;;;6130859;23;20037;-74
2022/01/22 04:05:10;;;;;;;5.57;4.32;;;;;;;;;;6155255;23;20016;-74
2022/01/22 04:10:14;;;;;;;4.68;3.97;;;;;;;;;;6156670;23;20469;-73
2022/01/22 04:15:11;;;;;;;5.85;4.13;;;;;;;;;;6155060;23;20009;-73
2022/01/22 04:25:52;;;;;;;5.28;3.72;;;;;;;;;;6155481;23;20017;-73
2022/01/22 04:28:17;;;;;;;5.40;3.80;;;;;;;;;;6156764;23;20012;-73
2022/01/22 04:30:43;;;;;;;5.70;4.25;;;;;;;;;;6156518;23;20013;-73
2022/01/22 04:33:10;;;;;;;4.32;3.70;;;;;;;;;;6130548;23;20444;-73
2022/01/22 04:35:36;;;;;;;4.90;3.88;;;;;;;;;;6154848;23;20411;-73
2022/01/22 04:38:02;;;;;;;4.63;3.92;;;;;;;;;;6130368;23;20012;-73
2022/01/22 04:40:28;;;;;;;5.07;4.00;;;;;;;;;;6154973;23;20029;-75
2022/01/22 04:42:55;;;;;;;4.88;4.40;;;;;;;;;;6155420;23;20009;-75
2022/01/22 04:45:51;;;;;;;6.30;3.88;;;;;;;;;;6156416;23;20494;-73
2022/01/22 04:55:53;;;;;;;5.75;3.83;;;;;;;;;;6159598;23;20322;-71
2022/01/22 04:58:20;;;;;;;5.38;3.80;;;;;;;;;;6133665;23;20009;-71
2022/01/22 05:00:45;;;;;;;5.63;3.80;;;;;;;;;;6159013;23;20079;-72
2022/01/22 05:03:31;;;;;;;5.05;3.40;;;;;;;;;;6164781;23;20441;-71
2022/01/22 05:06:15;;;;;;;3.78;3.08;;;;;;;;;;6186677;23;20016;-72
2022/01/22 05:09:03;;;;;;;3.95;3.53;;;;;;;;;;6164557;23;20561;-73
2022/01/22 05:11:45;;;;;;;4.97;3.88;;;;;;;;;;6138538;23;20314;-73
2022/01/22 05:14:10;;;;;;;5.68;3.63;;;;;;;;;;6159681;23;20012;-74
2022/01/22 05:16:37;;;;;;;4.05;3.70;;;;;;;;;;6159167;23;20005;-74
2022/01/22 05:19:13;;;;;;;4.32;3.70;;;;;;;;;;6159613;23;20005;-74
2022/01/22 05:21:40;;;;;;;4.78;3.72;;;;;;;;;;6159773;23;20009;-74
2022/01/22 05:24:10;;;;;;;4.45;3.60;;;;;;;;;;6159495;23;20005;-73
2022/01/22 05:37:09;;;;;;;5.80;3.78;;;;;;;;;;6160224;23;20091;-76
2022/01/22 05:39:35;;;;;;;5.00;3.60;;;;;;;;;;6134687;23;20099;-75
2022/01/22 05:42:02;;;;;;;4.65;4.10;;;;;;;;;;6158737;23;20016;-75
2022/01/22 05:44:29;;;;;;;4.72;3.53;;;;;;;;;;6160179;23;20016;-75
2022/01/22 05:46:57;;;;;;;5.38;3.30;;;;;;;;;;6159610;23;20092;-73
2022/01/22 05:49:25;;;;;;;5.10;3.33;;;;;;;;;;6185943;23;20005;-73
2022/01/22 05:51:53;;;;;;;3.30;3.00;;;;;;;;;;6184963;23;20456;-73
2022/01/22 05:59:40;;;;;;;3.72;3.28;;;;;;;;;;6159354;23;20009;-72
2022/01/22 06:02:09;;;;;;;3.25;2.97;;;;;;;;;;6135568;23;20011;-72
2022/01/22 06:04:35;;;;;;;3.95;3.13;;;;;;;;;;6159692;23;20440;-72
2022/01/22 06:07:05;;;;;;;4.70;3.25;;;;;;;;;;6159596;23;20430;-72
2022/01/22 06:09:33;;;;;;;5.57;3.25;;;;;;;;;;6134697;23;20013;-72
2022/01/22 06:14:39;;;;;;;4.40;3.35;;;;;;;;;;6161048;23;20005;-71
2022/01/22 06:17:05;;;;;;;3.45;3.10;;;;;;;;;;6187264;23;20051;-71
2022/01/22 06:19:37;;;;;;;3.95;3.03;;;;;;;;;;6161162;23;20051;-71
2022/01/22 06:22:04;;;;;;;4.78;3.60;;;;;;;;;;6161556;23;20087;-71
2022/01/22 06:24:31;;;;;;;3.97;3.60;;;;;;;;;;6160904;23;20382;-71
2022/01/22 06:26:58;;;;;;;4.57;3.70;;;;;;;;;;6161640;23;20005;-71
2022/01/22 06:29:23;;;;;;;3.70;3.30;;;;;;;;;;6161486;23;19993;-72
2022/01/22 06:31:50;;;;;;;3.75;3.25;;;;;;;;;;6161107;23;20067;-71
2022/01/22 06:34:17;;;;;;;4.05;3.03;;;;;;;;;;6161007;23;20436;-71
2022/01/22 06:36:42;;;;;;;5.97;3.80;;;;;;;;;;6187499;23;20041;-71
2022/01/22 06:39:10;;;;;;;5.00;3.35;;;;;;;;;;6136284;23;20024;-71
2022/01/22 06:41:59;;;;;;;3.95;3.50;;;;;;;;;;6171714;23;20020;-72
2022/01/22 06:44:40;;;;;;;5.07;3.53;;;;;;;;;;6160738;23;20016;-73
2022/01/22 06:47:25;;;;;;;4.85;3.90;;;;;;;;;;6164817;23;20390;-72
2022/01/22 06:50:06;;;;;;;5.28;3.47;;;;;;;;;;6187887;23;20433;-72
2022/01/22 06:53:00;;;;;;;5.70;3.50;;;;;;;;;;6186839;23;20129;-71
2022/01/22 06:55:45;;;;;;;5.65;3.38;;;;;;;;;;6161032;23;20009;-71
2022/01/22 06:58:14;;;;;;;4.07;3.72;;;;;;;;;;6136373;23;20080;-72
2022/01/22 07:00:44;;;;;;;5.60;3.90;;;;;;;;;;6160813;23;20124;-73
2022/01/22 07:03:30;;;;;;;4.80;3.65;;;;;;;;;;6160842;23;20005;-71
2022/01/22 07:06:15;;;;;;;4.35;3.92;;;;;;;;;;6186808;23;20099;-71
2022/01/22 07:08:41;;;;;;;4.55;3.90;;;;;;;;;;6160766;23;20028;-71
2022/01/22 07:11:10;;;;;;;5.60;4.38;;;;;;;;;;6160590;23;20005;-71
2022/01/22 07:13:41;;;;;;;9.80;7.35;;;;;;;;;;6137205;23;20028;-71
2022/01/22 07:16:07;;;;;;;34.30;16.17;;;;;;;;;;6161160;23;20060;-71
2022/01/22 07:18:33;;;;;;;81.15;35.95;;;;;;;;;;6135525;23;20000;-71
2022/01/22 07:21:08;;;;;;;36.13;25.05;;;;;;;;;;6135492;23;20011;-72
2022/01/22 07:26:02;;;;;;;9.95;5.13;;;;;;;;;;6160106;23;20430;-72
2022/01/22 07:28:43;;;;;;;13.85;6.00;;;;;;;;;;6160160;23;20005;-72
2022/01/22 07:31:09;;;;;;;12.70;5.72;;;;;;;;;;6159824;23;20283;-71
2022/01/22 07:33:36;;;;;;;12.50;6.28;;;;;;;;;;6159915;23;20001;-72
2022/01/22 07:36:03;;;;;;;13.15;6.68;;;;;;;;;;6160478;23;20436;-71
2022/01/22 07:38:28;;;;;;;8.65;5.63;;;;;;;;;;6160310;23;20052;-71
2022/01/22 07:40:55;;;;;;;9.27;5.35;;;;;;;;;;6160491;23;20023;-71
2022/01/22 07:43:28;;;;;;;8.07;5.75;;;;;;;;;;6137205;23;20072;-71
2022/01/22 07:46:13;;;;;;;13.30;9.52;;;;;;;;;;6186360;23;20024;-71
2022/01/22 07:48:48;;;;;;;10.85;6.15;;;;;;;;;;6160003;23;20012;-71
2022/01/22 07:51:25;;;;;;;8.27;5.72;;;;;;;;;;6149293;23;20080;-71
2022/01/22 07:53:51;;;;;;;7.85;5.90;;;;;;;;;;6130466;23;20001;-71
2022/01/22 07:56:20;;;;;;;7.38;5.53;;;;;;;;;;6130353;23;20032;-71
2022/01/22 07:58:45;;;;;;;8.35;5.70;;;;;;;;;;6130478;23;20437;-71
2022/01/22 08:01:15;;;;;;;7.55;5.70;;;;;;;;;;6130182;23;20009;-71
2022/01/22 08:04:03;;;;;;;6.90;4.88;;;;;;;;;;6101177;23;20033;-71
2022/01/22 08:06:47;;;;;;;9.75;6.65;;;;;;;;;;6156543;23;20067;-71
2022/01/22 08:09:39;;;;;;;11.70;7.47;;;;;;;;;;6111165;23;20017;-71
2022/01/22 08:12:28;;;;;;;7.85;5.80;;;;;;;;;;6144748;23;20052;-71
2022/01/22 08:14:57;;;;;;;11.05;7.45;;;;;;;;;;6130226;23;20005;-71
2022/01/22 08:17:23;;;;;;;9.32;6.53;;;;;;;;;;6130165;23;20036;-71
2022/01/22 08:19:49;;;;;;;8.48;6.43;;;;;;;;;;6130105;23;20053;-71
2022/01/22 08:22:33;;;;;;;8.75;6.60;;;;;;;;;;6156439;23;20036;-71
2022/01/22 08:25:34;;;;;;;8.07;6.78;;;;;;;;;;6123942;23;20021;-71
2022/01/22 08:31:03;;;;;;;8.50;5.90;;;;;;;;;;6129920;23;20017;-71
2022/01/22 08:35:59;;;;;;;8.57;5.95;;;;;;;;;;6129870;23;20088;-70
2022/01/22 08:38:26;;;;;;;9.05;6.40;;;;;;;;;;6156161;23;20001;-71
2022/01/22 08:40:51;;;;;;;8.98;6.78;;;;;;;;;;6130003;23;20009;-71
2022/01/22 08:43:18;;;;;;;10.38;6.50;;;;;;;;;;6105621;23;20371;-71
2022/01/22 08:45:44;;;;;;;8.80;6.80;;;;;;;;;;6129485;23;20013;-71
2022/01/22 08:48:09;;;;;;;52.72;28.58;;;;;;;;;;6129894;23;20084;-71
2022/01/22 08:50:37;;;;;;;12.35;7.65;;;;;;;;;;6129868;23;20009;-71
2022/01/22 08:53:04;;;;;;;10.90;7.85;;;;;;;;;;6129832;23;20093;-71
2022/01/22 08:55:30;;;;;;;9.35;7.00;;;;;;;;;;6129853;23;20044;-71
2022/01/22 08:57:56;;;;;;;13.95;8.70;;;;;;;;;;6129746;23;20005;-71
2022/01/22 09:00:35;;;;;;;8.60;6.53;;;;;;;;;;6130009;23;20016;-71
2022/01/22 09:03:15;;;;;;;13.25;8.50;;;;;;;;;;6129913;23;20005;-71
2022/01/22 09:05:56;;;;;;;12.63;7.10;;;;;;;;;;6129970;23;20009;-71
2022/01/22 09:08:40;;;;;;;17.45;10.05;;;;;;;;;;6156104;23;20072;-71
2022/01/22 09:11:18;;;;;;;10.07;6.82;;;;;;;;;;6129671;23;20012;-71
2022/01/22 09:13:56;;;;;;;10.40;6.65;;;;;;;;;;6129681;23;20361;-71
2022/01/22 09:16:25;;;;;;;10.13;6.63;;;;;;;;;;6129695;23;20345;-71
2022/01/22 09:18:54;;;;;;;155.27;56.05;;;;;;;;;;6129771;23;20012;-71
2022/01/22 09:21:19;;;;;;;656.58;301.42;;;;;;;;;;6129674;23;20084;-71
2022/01/22 09:23:45;;;;;;;11.07;7.55;;;;;;;;;;6129373;23;20029;-71
2022/01/22 09:26:13;;;;;;;11.40;7.20;;;;;;;;;;6129596;23;20072;-71
2022/01/22 09:28:39;;;;;;;12.88;7.47;;;;;;;;;;6155731;23;20006;-71
2022/01/22 09:31:05;;;;;;;87.88;35.35;;;;;;;;;;6155805;23;19998;-71
2022/01/22 09:33:30;;;;;;;12.60;7.30;;;;;;;;;;6155321;23;20088;-71
2022/01/22 09:36:14;;;;;;;52.00;20.33;;;;;;;;;;6155845;23;20114;-70
2022/01/22 09:38:49;;;;;;;287.50;103.45;;;;;;;;;;6131458;23;20009;-70
2022/01/22 09:41:15;;;;;;;16.80;9.05;;;;;;;;;;6156396;23;20318;-70
2022/01/22 09:44:04;;;;;;;70.18;28.20;;;;;;;;;;6140340;23;20410;-70
2022/01/22 09:46:40;;;;;;;56.38;24.33;;;;;;;;;;6131393;23;20006;-70
2022/01/22 09:49:26;;;;;;;25.38;12.50;;;;;;;;;;6131730;23;20002;-72
2022/01/22 09:52:10;;;;;;;10.85;6.07;;;;;;;;;;6176223;23;20487;-70
2022/01/22 09:55:05;;;;;;;42.28;21.92;;;;;;;;;;6161329;23;20008;-71
2022/01/22 09:57:54;;;;;;;114.18;54.17;;;;;;;;;;6186529;23;20092;-71
2022/01/22 10:00:26;;;;;;;14.95;8.63;;;;;;;;;;6160819;23;20005;-71
2022/01/22 10:02:57;;;;;;;64.70;34.35;;;;;;;;;;6160804;23;20020;-71
2022/01/22 10:05:35;;;;;;;26.27;16.77;;;;;;;;;;6160586;23;20020;-70
2022/01/22 10:08:35;;;;;;;16.10;10.52;;;;;;;;;;6187299;23;20116;-70
2022/01/22 10:11:16;;;;;;;9.30;4.55;;;;;;;;;;6187835;23;20012;-70
2022/01/22 10:14:02;;;;;;;8.68;5.68;;;;;;;;;;6165066;23;20019;-70
2022/01/22 10:16:27;;;;;;;9.45;7.00;;;;;;;;;;6187200;23;20001;-70
2022/01/22 10:19:13;;;;;;;11.68;8.02;;;;;;;;;;6160466;23;20085;-70
2022/01/22 10:21:46;;;;;;;26.23;17.30;;;;;;;;;;6187048;23;20441;-70
2022/01/22 10:24:39;;;;;;;6.55;5.03;;;;;;;;;;6187499;23;20012;-70
2022/01/22 10:27:11;;;;;;;13.13;7.65;;;;;;;;;;6186849;23;20005;-71
2022/01/22 10:29:46;;;;;;;9.48;6.05;;;;;;;;;;6186927;23;20005;-70
2022/01/22 10:32:16;;;;;;;9.63;6.30;;;;;;;;;;6160472;23;20013;-70
2022/01/22 10:35:08;;;;;;;20.40;12.85;;;;;;;;;;6164321;23;20096;-70
2022/01/22 10:37:56;;;;;;;22.08;13.10;;;;;;;;;;6186191;23;20067;-70
2022/01/22 10:40:32;;;;;;;11.25;5.63;;;;;;;;;;6160220;23;20024;-70
2022/01/22 10:43:11;;;;;;;7.60;4.50;;;;;;;;;;6186828;23;20005;-70
2022/01/22 10:45:41;;;;;;;17.77;11.57;;;;;;;;;;6186844;23;20005;-70
2022/01/22 10:48:32;;;;;;;95.95;73.03;;;;;;;;;;6160610;23;20004;-70
2022/01/22 10:50:58;;;;;;;21.67;13.77;;;;;;;;;;6179384;23;20029;-71
2022/01/22 10:53:55;;;;;;;12.35;7.60;;;;;;;;;;6186633;23;20039;-70
2022/01/22 10:56:22;;;;;;;10.88;6.22;;;;;;;;;;6136544;23;20013;-71
2022/01/22 10:58:53;;;;;;;61.75;42.08;;;;;;;;;;6186884;23;20330;-70
2022/01/22 11:01:18;;;;;;;;;;;;;;;;;;6187322;23;20005;-70
2022/01/22 11:03:44;;;;;;;23.03;14.07;;;;;;;;;;6186679;23;19939;-70
2022/01/22 11:06:23;;;;;;;17.13;11.07;;;;;;;;;;6186589;23;20291;-70
2022/01/22 11:08:49;;;;;;;14.82;8.23;;;;;;;;;;6186651;23;20005;-70
2022/01/22 11:11:14;;;;;;;18.35;11.95;;;;;;;;;;6185886;23;20004;-70
2022/01/22 11:13:39;;;;;;;22.20;15.18;;;;;;;;;;6186924;23;20448;-70
2022/01/22 11:16:05;;;;;;;12.23;7.28;;;;;;;;;;6160025;23;20005;-70
2022/01/22 11:18:31;;;;;;;48.15;31.35;;;;;;;;;;6186513;23;20005;-70
2022/01/22 11:20:57;;;;;;;17.38;11.05;;;;;;;;;;6186521;23;19997;-70
2022/01/22 11:23:22;;;;;;;18.15;11.15;;;;;;;;;;6186404;23;20457;-70
2022/01/22 11:25:49;;;;;;;10.65;6.38;;;;;;;;;;6186445;23;20025;-70
2022/01/22 11:28:15;;;;;;;13.00;7.60;;;;;;;;;;6186407;23;20009;-70
2022/01/22 11:30:43;;;;;;;10.85;7.72;;;;;;;;;;6186514;23;20011;-70
2022/01/22 11:33:10;;;;;;;12.57;7.60;;;;;;;;;;6186283;23;20381;-70
2022/01/22 11:36:02;;;;;;;11.85;7.65;;;;;;;;;;6186436;23;19993;-70
2022/01/22 11:38:29;;;;;;;8.52;6.60;;;;;;;;;;6179347;23;20059;-70
2022/01/22 11:41:11;;;;;;;10.95;6.82;;;;;;;;;;6186431;23;19993;-70
2022/01/22 11:44:04;;;;;;;12.18;6.47;;;;;;;;;;6186538;23;20030;-70
2022/01/22 11:46:34;;;;;;;10.70;6.25;;;;;;;;;;6186298;23;20006;-70
2022/01/22 11:49:13;;;;;;;9.45;5.93;;;;;;;;;;6186255;23;20001;-70
2022/01/22 11:51:39;;;;;;;9.00;5.53;;;;;;;;;;6172051;23;20017;-70
2022/01/22 11:54:05;;;;;;;11.30;6.15;;;;;;;;;;6176449;23;20323;-70
2022/01/22 11:56:40;;;;;;;41.30;18.40;;;;;;;;;;6186576;23;20005;-69
2022/01/22 11:59:24;;;;;;;9.13;5.60;;;;;;;;;;6187106;23;20005;-68
2022/01/22 12:01:51;;;;;;;7.65;4.63;;;;;;;;;;6160277;23;20334;-67
2022/01/22 12:04:18;;;;;;;7.75;4.78;;;;;;;;;;6185752;23;20005;-66
2022/01/22 12:07:02;;;;;;;12.93;6.93;;;;;;;;;;6186180;23;20013;-71
2022/01/22 12:15:11;;;;;;;9.38;5.53;;;;;;;;;;6186203;23;19997;-68
2022/01/22 12:17:58;;;;;;;13.07;6.35;;;;;;;;;;6186038;23;20000;-70
2022/01/22 12:20:41;;;;;;;106.05;33.78;;;;;;;;;;6186083;23;20083;-70
2022/01/22 12:23:09;;;;;;;21.02;9.30;;;;;;;;;;6185988;23;20028;-69
2022/01/22 12:25:35;;;;;;;28.17;11.93;;;;;;;;;;6185782;23;20036;-62
2022/01/22 12:28:01;;;;;;;93.00;28.20;;;;;;;;;;6185874;23;20366;-66
2022/01/22 12:30:40;;;;;;;14.63;7.28;;;;;;;;;;6159497;23;20012;-66
2022/01/22 12:33:09;;;;;;;69.85;23.05;;;;;;;;;;6185606;23;20040;-67
2022/01/22 12:35:36;;;;;;;19.48;8.63;;;;;;;;;;6185905;23;20012;-66
2022/01/22 12:38:19;;;;;;;129.57;38.95;;;;;;;;;;6185754;23;20005;-66
2022/01/22 12:40:45;;;;;;;117.47;39.65;;;;;;;;;;6185963;23;20012;-66
2022/01/22 12:43:19;;;;;;;78.05;23.13;;;;;;;;;;6185703;23;19997;-66
2022/01/22 12:45:45;;;;;;;36.83;12.77;;;;;;;;;;6185715;23;20020;-66
2022/01/22 12:48:12;;;;;;;86.85;30.23;;;;;;;;;;6159209;23;20001;-68
2022/01/22 12:50:37;;;;;;;125.50;40.90;;;;;;;;;;6185461;23;20013;-67
2022/01/22 12:53:11;;;;;;;154.55;49.15;;;;;;;;;;6184951;23;20017;-67
2022/01/22 12:56:02;;;;;;;94.05;28.83;;;;;;;;;;6186106;23;20437;-67
2022/01/22 12:58:27;;;;;;;276.80;105.85;;;;;;;;;;6185485;23;20012;-67
2022/01/22 13:01:13;;;;;;;160.23;50.83;;;;;;;;;;6184795;23;20001;-67
2022/01/22 13:03:40;;;;;;;30.70;12.02;;;;;;;;;;6185889;23;20072;-67
2022/01/22 13:06:05;;;;;;;499.38;166.45;;;;;;;;;;6185861;23;20005;-67
2022/01/22 13:08:57;;;;;;;266.38;91.07;;;;;;;;;;6185007;23;20341;-67
2022/01/22 13:11:29;;;;;;;133.73;38.83;;;;;;;;;;6184937;23;20009;-67
2022/01/22 13:13:55;;;;;;;297.58;89.10;;;;;;;;;;6184991;23;20009;-67
2022/01/22 13:16:21;;;;;;;131.48;36.80;;;;;;;;;;6185423;23;20024;-67
2022/01/22 13:18:49;;;;;;;22.30;9.55;;;;;;;;;;6185415;23;20445;-67
2022/01/22 13:21:16;;;;;;;387.15;108.90;;;;;;;;;;6185306;23;20001;-67
2022/01/22 13:23:41;;;;;;;56.88;20.67;;;;;;;;;;6185587;23;20008;-67
2022/01/22 13:26:07;;;;;;;230.02;70.45;;;;;;;;;;6185553;23;20076;-67
2022/01/22 13:28:36;;;;;;;37.75;15.30;;;;;;;;;;6185515;23;20005;-67
2022/01/22 13:31:16;;;;;;;25.38;11.10;;;;;;;;;;6185500;23;20421;-67
2022/01/22 13:34:10;;;;;;;241.52;84.53;;;;;;;;;;6185403;23;20005;-67
2022/01/22 13:37:06;;;;;;;13.23;6.65;;;;;;;;;;6159327;23;20001;-67
2022/01/22 13:39:48;;;;;;;551.97;188.85;;;;;;;;;;6183181;23;20005;-67
2022/01/22 13:45:08;;;;;;;16.75;7.15;;;;;;;;;;6185015;23;20015;-67
2022/01/22 13:47:46;;;;;;;93.15;27.20;;;;;;;;;;6158998;23;20015;-67
2022/01/22 13:50:12;;;;;;;62.85;22.13;;;;;;;;;;6185520;23;20009;-67
2022/01/22 13:52:38;;;;;;;27.88;12.23;;;;;;;;;;6185182;23;20004;-67
2022/01/22 13:55:03;;;;;;;15.85;7.07;;;;;;;;;;6185125;23;20437;-67
2022/01/22 13:57:33;;;;;;;13.15;6.38;;;;;;;;;;6185439;23;20010;-67
2022/01/22 13:59:59;;;;;;;9.93;5.68;;;;;;;;;;6185192;23;20362;-67
2022/01/22 14:05:00;;;;;;;18.27;8.13;;;;;;;;;;6185220;23;20084;-67
2022/01/22 14:07:29;;;;;;;14.02;6.55;;;;;;;;;;6185225;23;20401;-67
2022/01/22 14:10:00;;;;;;;9.83;5.93;;;;;;;;;;6185258;23;20005;-67
2022/01/22 14:12:34;;;;;;;20.90;8.70;;;;;;;;;;6185019;23;20013;-67
2022/01/22 14:15:04;;;;;;;16.23;7.45;;;;;;;;;;6185171;23;20008;-67
2022/01/22 14:17:38;;;;;;;26.13;9.93;;;;;;;;;;6185287;23;20005;-67
2022/01/22 14:20:08;;;;;;;12.48;6.55;;;;;;;;;;6185174;23;20059;-67
2022/01/22 14:22:53;;;;;;;15.38;8.30;;;;;;;;;;6185111;23;20322;-67
2022/01/22 14:25:19;;;;;;;12.43;7.25;;;;;;;;;;6185104;23;20009;-68
2022/01/22 14:27:57;;;;;;;13.25;6.85;;;;;;;;;;6185043;23;20025;-67
2022/01/22 14:30:33;;;;;;;30.65;13.35;;;;;;;;;;6185252;23;20056;-67
2022/01/22 14:32:59;;;;;;;13.10;8.75;;;;;;;;;;6186997;23;20012;-68
2022/01/22 14:35:24;;;;;;;14.50;8.32;;;;;;;;;;6187076;23;20076;-68
2022/01/22 14:37:53;;;;;;;13.32;8.05;;;;;;;;;;6186953;23;20492;-67
2022/01/22 14:45:58;;;;;;;20.90;10.45;;;;;;;;;;6186846;23;20004;-68
2022/01/22 14:48:23;;;;;;;16.30;8.52;;;;;;;;;;6186716;23;20005;-68
2022/01/22 14:50:49;;;;;;;14.90;8.88;;;;;;;;;;6186428;23;20004;-68
2022/01/22 14:53:14;;;;;;;12.35;8.05;;;;;;;;;;6186526;23;20099;-68
2022/01/22 14:56:02;;;;;;;14.43;8.60;;;;;;;;;;6187070;23;20001;-67
2022/01/22 14:58:28;;;;;;;13.20;8.00;;;;;;;;;;6160669;23;20005;-67
2022/01/22 15:00:54;;;;;;;14.93;8.27;;;;;;;;;;6160605;23;19995;-67
2022/01/22 15:03:19;;;;;;;13.32;8.02;;;;;;;;;;6186651;23;20086;-68
2022/01/22 15:05:45;;;;;;;13.75;8.35;;;;;;;;;;6186405;23;20033;-68
2022/01/22 15:08:10;;;;;;;14.43;8.15;;;;;;;;;;6186651;23;20434;-67
2022/01/22 15:10:35;;;;;;;15.50;8.15;;;;;;;;;;6186536;23;20057;-68
2022/01/22 15:13:01;;;;;;;15.10;8.30;;;;;;;;;;6186450;23;20088;-67
2022/01/22 15:15:32;;;;;;;17.88;9.02;;;;;;;;;;6186588;23;20028;-67
2022/01/22 15:18:08;;;;;;;15.75;8.00;;;;;;;;;;6186641;23;20005;-67
2022/01/22 15:20:33;;;;;;;14.18;7.90;;;;;;;;;;6186717;23;20001;-67
2022/01/22 15:22:59;;;;;;;14.70;8.30;;;;;;;;;;6186534;23;20008;-67
2022/01/22 15:25:25;;;;;;;15.27;8.00;;;;;;;;;;6186642;23;20361;-67
2022/01/22 15:27:50;;;;;;;13.35;7.40;;;;;;;;;;6186649;23;19997;-67
2022/01/22 15:30:29;;;;;;;14.48;8.20;;;;;;;;;;6186392;23;20020;-67
2022/01/22 15:35:20;;;;;;;16.30;8.35;;;;;;;;;;6186468;23;19993;-68
2022/01/22 15:37:51;;;;;;;14.38;8.07;;;;;;;;;;6186319;23;20012;-67
2022/01/22 15:40:18;;;;;;;14.13;8.05;;;;;;;;;;6186384;23;20052;-67
2022/01/22 15:42:44;;;;;;;15.43;8.35;;;;;;;;;;6186035;23;20008;-67
2022/01/22 15:45:09;;;;;;;12.48;7.72;;;;;;;;;;6186097;23;20012;-67
2022/01/22 15:47:35;;;;;;;16.05;8.07;;;;;;;;;;6185802;23;20005;-67
2022/01/22 15:50:00;;;;;;;16.20;8.60;;;;;;;;;;6186297;23;20021;-67
2022/01/22 15:52:26;;;;;;;15.60;8.18;;;;;;;;;;6186002;23;20001;-67
2022/01/22 15:54:52;;;;;;;16.27;8.75;;;;;;;;;;6175823;23;20429;-67
2022/01/22 15:57:18;;;;;;;15.60;8.30;;;;;;;;;;6186029;23;20005;-67
2022/01/22 15:59:43;;;;;;;15.90;8.90;;;;;;;;;;6186183;23;20008;-67
2022/01/22 16:02:09;;;;;;;17.63;9.32;;;;;;;;;;6186189;23;20342;-67
2022/01/22 16:04:35;;;;;;;14.60;7.90;;;;;;;;;;6186281;23;20125;-67
2022/01/22 16:07:07;;;;;;;14.25;8.73;;;;;;;;;;6186042;23;20144;-67
2022/01/22 16:09:33;;;;;;;14.07;8.05;;;;;;;;;;6186163;23;20429;-67
2022/01/22 16:11:59;;;;;;;16.65;8.57;;;;;;;;;;6159617;23;20015;-68
2022/01/22 16:14:24;;;;;;;14.85;8.52;;;;;;;;;;6185979;23;20008;-68
2022/01/22 16:16:50;;;;;;;18.17;9.88;;;;;;;;;;6186004;23;20080;-67
2022/01/22 16:19:16;;;;;;;19.08;9.70;;;;;;;;;;6185880;23;20008;-68
2022/01/22 16:21:42;;;;;;;19.00;9.70;;;;;;;;;;6185936;23;20084;-67
2022/01/22 16:24:08;;;;;;;18.33;9.75;;;;;;;;;;6185999;23;20012;-67
2022/01/22 16:26:34;;;;;;;21.70;10.73;;;;;;;;;;6185879;23;20381;-67
2022/01/22 16:28:59;;;;;;;20.38;10.90;;;;;;;;;;6185917;23;20012;-68
2022/01/22 16:31:26;;;;;;;20.65;10.40;;;;;;;;;;6185812;23;20001;-67
2022/01/22 16:33:52;;;;;;;18.88;10.85;;;;;;;;;;6185883;23;20012;-68
2022/01/22 16:36:18;;;;;;;19.98;10.93;;;;;;;;;;6185827;23;20080;-68
2022/01/22 16:38:44;;;;;;;18.48;10.30;;;;;;;;;;6185766;23;20012;-68
2022/01/22 16:41:11;;;;;;;16.42;9.70;;;;;;;;;;6185359;23;20072;-68
2022/01/22 16:43:38;;;;;;;21.98;11.13;;;;;;;;;;6185619;23;20009;-68
2022/01/22 16:54:37;;;;;;;17.67;10.45;;;;;;;;;;6185224;23;20016;-68
2022/01/22 16:59:17;;;;;;;20.80;10.25;;;;;;;;;;6185602;23;19997;-68
2022/01/22 17:01:46;;;;;;;19.77;9.45;;;;;;;;;;6185760;23;20013;-68